Webcam & Weather

This webcam image will automatically refresh every 15 seconds.


METAR and TAF for EGLL Heathrow (12 Nautical Miles East of White Waltham)

Available data for EGLL from the past hour
LONDON/HEATHROW
Metar
EGLL 240720Z AUTO VRB01KT 9999 NCD 05/03 Q1031

07:20 UTC

Wind: ° 1kt

Visibility: 9999 m

Sky:

Temp: 5 deg C / 41 deg F

Dewpoint: 3 deg C / 37.4 deg F

Pressure: 1031 hPa

TAF
TAF EGLL 240451Z 2406/2512 32007KT 9999 FEW045 PROB30 TEMPO 2406/2408 8000 PROB30 TEMPO 2502/2505 31015G25KT 8000 -SHRA

Play 24 hour timelapse | Play 30 day timelapse

Comments are closed.